PWSweather.com
Personal Weather Stations
Station Observations
SHAHALMS1
Eftra, Falkenberg, HA

EftraFalkenberg, HA

Lat: 56.85, Lon: 12.65

Elevation: 140

Station Type:

http://hem.passagen.se/risarp101

High Low Average
Temperature 68.5°F20.3°C 58.8°F14.9°C 63.7°F17.6°C
Dew Point 66.1°F18.9°C 54.1°F12.3°C 60.1°F15.6°C
Winds 12.0 mph 19.3 kmh Calm Calm 5.0 mph SE8.0 kmh SE
Wind Gusts 25.4 mph40.9 kmh -- 13.0 mph20.9 kmh
Humidity 96% 77% 88%
Pressure 29.86 in1011.2 mb 29.68 in1005.1 mb -
Precipitation 0.68 in17.3 mm - -
Hour Temp Dew Point Humidity Winds Wind Gusts Pressure Precip Precip Rate Daily Precip Total
12:00 AM 58.8°F14.9°C 55.6°F13.1°C 89% Calm Calm -- 29.83 in1010.2 mb 0.00 in0.0 mm 0.00 in0.0 mm 0.00 in0.0 mm
12:10 AM 59.0°F15.0°C 56.1°F13.4°C 90% Calm Calm -- 29.83 in1010.2 mb 0.00 in0.0 mm 0.00 in0.0 mm 0.00 in0.0 mm
12:20 AM 59.4°F15.2°C 56.4°F13.6°C 90% 0.1 mph E0.2 kmh E 1.8 mph2.9 kmh 29.83 in1010.2 mb 0.00 in0.0 mm 0.00 in0.0 mm 0.00 in0.0 mm
12:30 AM 59.5°F15.3°C 56.6°F13.7°C 90% 2.4 mph ENE3.9 kmh ENE 7.2 mph11.6 kmh 29.86 in1011.2 mb 0.00 in0.0 mm 0.00 in0.0 mm 0.00 in0.0 mm
12:40 AM 59.7°F15.4°C 56.8°F13.8°C 90% 1.1 mph NE1.8 kmh NE 5.4 mph8.7 kmh 29.86 in1011.2 mb 0.00 in0.0 mm 0.00 in0.0 mm 0.00 in0.0 mm
12:50 AM 59.9°F15.5°C 57.0°F13.9°C 90% 1.9 mph E3.1 kmh E 8.6 mph13.8 kmh 29.83 in1010.2 mb 0.00 in0.0 mm 0.00 in0.0 mm 0.00 in0.0 mm
01:00 AM 60.3°F15.7°C 57.3°F14.1°C 90% 2.7 mph E4.3 kmh E 8.6 mph13.8 kmh 29.83 in1010.2 mb 0.00 in0.0 mm 0.00 in0.0 mm 0.00 in0.0 mm
01:10 AM 60.6°F15.9°C 57.7°F14.3°C 90% 3.5 mph ESE5.6 kmh ESE 12.9 mph20.8 kmh 29.83 in1010.2 mb 0.00 in0.0 mm 0.00 in0.0 mm 0.00 in0.0 mm
01:20 AM 60.8°F16.0°C 57.8°F14.3°C 90% 2.6 mph E4.2 kmh E 9.3 mph15.0 kmh 29.83 in1010.2 mb 0.00 in0.0 mm 0.00 in0.0 mm 0.00 in0.0 mm
01:30 AM 61.0°F16.1°C 57.7°F14.3°C 89% 3.7 mph ESE6.0 kmh ESE 10.0 mph16.1 kmh 29.80 in1009.1 mb 0.00 in0.0 mm 0.00 in0.0 mm 0.00 in0.0 mm
01:40 AM 61.2°F16.2°C 57.6°F14.2°C 88% 3.6 mph ESE5.8 kmh ESE 12.5 mph20.1 kmh 29.80 in1009.1 mb 0.00 in0.0 mm 0.00 in0.0 mm 0.00 in0.0 mm
01:50 AM 61.3°F16.3°C 57.4°F14.1°C 87% 3.3 mph ESE5.3 kmh ESE 9.7 mph15.6 kmh 29.80 in1009.1 mb 0.00 in0.0 mm 0.00 in0.0 mm 0.00 in0.0 mm
02:00 AM 61.3°F16.3°C 57.4°F14.1°C 87% 6.0 mph ESE9.7 kmh ESE 16.8 mph27.0 kmh 29.80 in1009.1 mb 0.00 in0.0 mm 0.00 in0.0 mm 0.00 in0.0 mm
02:10 AM 61.3°F16.3°C 56.8°F13.8°C 85% 5.6 mph ESE9.0 kmh ESE 13.6 mph21.9 kmh 29.80 in1009.1 mb 0.00 in0.0 mm 0.00 in0.0 mm 0.00 in0.0 mm
02:20 AM 61.3°F16.3°C 56.1°F13.4°C 83% 7.5 mph SE12.1 kmh SE 22.5 mph36.2 kmh 29.77 in1008.1 mb 0.00 in0.0 mm 0.00 in0.0 mm 0.00 in0.0 mm
02:30 AM 61.3°F16.3°C 55.5°F13.1°C 81% 7.9 mph ESE12.7 kmh ESE 16.5 mph26.6 kmh 29.77 in1008.1 mb 0.00 in0.0 mm 0.00 in0.0 mm 0.00 in0.0 mm
02:40 AM 61.3°F16.3°C 55.5°F13.1°C 81% 6.6 mph SE10.6 kmh SE 17.2 mph27.7 kmh 29.77 in1008.1 mb 0.00 in0.0 mm 0.00 in0.0 mm 0.00 in0.0 mm
02:50 AM 61.3°F16.3°C 54.8°F12.7°C 79% 8.3 mph SE13.4 kmh SE 15.7 mph25.3 kmh 29.77 in1008.1 mb 0.00 in0.0 mm 0.00 in0.0 mm 0.00 in0.0 mm
03:00 AM 61.3°F16.3°C 54.4°F12.4°C 78% 4.8 mph E7.7 kmh E 11.8 mph19.0 kmh 29.77 in1008.1 mb 0.00 in0.0 mm 0.00 in0.0 mm 0.00 in0.0 mm
03:10 AM 61.3°F16.3°C 54.4°F12.4°C 78% 6.1 mph ESE9.8 kmh ESE 10.4 mph16.7 kmh 29.77 in1008.1 mb 0.00 in0.0 mm 0.00 in0.0 mm 0.00 in0.0 mm
03:20 AM 61.3°F16.3°C 54.1°F12.3°C 77% 5.8 mph SE9.3 kmh SE 18.3 mph29.5 kmh 29.74 in1007.1 mb 0.00 in0.0 mm 0.00 in0.0 mm 0.00 in0.0 mm
03:30 AM 61.5°F16.4°C 54.2°F12.3°C 77% 6.8 mph SE10.9 kmh SE 15.7 mph25.3 kmh 29.74 in1007.1 mb 0.00 in0.0 mm 0.00 in0.0 mm 0.00 in0.0 mm
03:40 AM 61.5°F16.4°C 54.2°F12.3°C 77% 6.1 mph SE9.8 kmh SE 10.4 mph16.7 kmh 29.74 in1007.1 mb 0.00 in0.0 mm 0.00 in0.0 mm 0.00 in0.0 mm
03:50 AM 61.7°F16.5°C 54.4°F12.4°C 77% 4.2 mph SE6.8 kmh SE 12.2 mph19.6 kmh 29.74 in1007.1 mb 0.00 in0.0 mm 0.00 in0.0 mm 0.00 in0.0 mm
04:00 AM 61.7°F16.5°C 54.4°F12.4°C 77% 4.8 mph SE7.7 kmh SE 12.9 mph20.8 kmh 29.74 in1007.1 mb 0.00 in0.0 mm 0.00 in0.0 mm 0.00 in0.0 mm
04:10 AM 61.5°F16.4°C 54.6°F12.6°C 78% 4.1 mph SSE6.6 kmh SSE 9.7 mph15.6 kmh 29.74 in1007.1 mb 0.00 in0.0 mm 0.00 in0.0 mm 0.00 in0.0 mm
04:20 AM 61.3°F16.3°C 54.8°F12.7°C 79% 3.5 mph S5.6 kmh S 9.7 mph15.6 kmh 29.74 in1007.1 mb 0.00 in0.0 mm 0.00 in0.0 mm 0.00 in0.0 mm
04:30 AM 61.2°F16.2°C 55.3°F12.9°C 81% 4.3 mph SSE6.9 kmh SSE 11.8 mph19.0 kmh 29.74 in1007.1 mb 0.00 in0.0 mm 0.00 in0.0 mm 0.00 in0.0 mm
04:40 AM 60.8°F16.0°C 55.6°F13.1°C 83% 6.5 mph SE10.5 kmh SE 16.5 mph26.6 kmh 29.74 in1007.1 mb 0.06 in1.5 mm 0.36 in9.1 mm 0.06 in1.5 mm
04:50 AM 60.4°F15.8°C 55.6°F13.1°C 84% 4.1 mph SE6.6 kmh SE 11.8 mph19.0 kmh 29.74 in1007.1 mb 0.10 in2.5 mm 0.24 in6.1 mm 0.10 in2.5 mm
05:00 AM 60.4°F15.8°C 56.6°F13.7°C 87% 6.8 mph SE10.9 kmh SE 16.1 mph25.9 kmh 29.74 in1007.1 mb 0.15 in3.8 mm 0.06 in1.5 mm 0.15 in3.8 mm
05:10 AM 60.3°F15.7°C 56.4°F13.6°C 87% 1.7 mph E2.7 kmh E 7.9 mph12.7 kmh 29.74 in1007.1 mb 0.19 in4.8 mm 0.24 in6.1 mm 0.20 in5.1 mm
05:20 AM 60.1°F15.6°C 56.5°F13.6°C 88% 1.9 mph E3.1 kmh E 5.4 mph8.7 kmh 29.71 in1006.1 mb 0.24 in6.1 mm 0.30 in7.6 mm 0.24 in6.1 mm
05:30 AM 60.1°F15.6°C 56.5°F13.6°C 88% 1.9 mph SSE3.1 kmh SSE 6.4 mph10.3 kmh 29.71 in1006.1 mb 0.24 in6.1 mm 0.00 in0.0 mm 0.24 in6.1 mm
05:40 AM 60.1°F15.6°C 57.4°F14.1°C 91% 6.1 mph ESE9.8 kmh ESE 22.9 mph36.9 kmh 29.71 in1006.1 mb 0.24 in6.1 mm 0.00 in0.0 mm 0.30 in7.6 mm
05:50 AM 60.3°F15.7°C 57.9°F14.4°C 92% 6.6 mph E10.6 kmh E 14.0 mph22.5 kmh 29.71 in1006.1 mb 0.23 in5.8 mm 0.00 in0.0 mm 0.33 in8.4 mm
06:00 AM 60.3°F15.7°C 58.2°F14.6°C 93% 7.4 mph ESE11.9 kmh ESE 15.7 mph25.3 kmh 29.68 in1005.1 mb 0.29 in7.4 mm 0.07 in1.8 mm 0.44 in11.2 mm
06:10 AM 60.4°F15.8°C 58.4°F14.7°C 93% 7.0 mph ESE11.3 kmh ESE 16.8 mph27.0 kmh 29.68 in1005.1 mb 0.29 in7.4 mm 0.00 in0.0 mm 0.48 in12.2 mm
06:20 AM 60.6°F15.9°C 58.9°F14.9°C 94% 5.5 mph E8.9 kmh E 12.5 mph20.1 kmh 29.71 in1006.1 mb 0.24 in6.1 mm 0.00 in0.0 mm 0.48 in12.2 mm
06:30 AM 60.6°F15.9°C 58.9°F14.9°C 94% 6.5 mph ESE10.5 kmh ESE 15.7 mph25.3 kmh 29.71 in1006.1 mb 0.24 in6.1 mm 0.00 in0.0 mm 0.48 in12.2 mm
06:40 AM 60.6°F15.9°C 58.9°F14.9°C 94% 8.7 mph SE14.0 kmh SE 22.5 mph36.2 kmh 29.71 in1006.1 mb 0.19 in4.8 mm 0.00 in0.0 mm 0.48 in12.2 mm
06:50 AM 60.8°F16.0°C 59.1°F15.1°C 94% 6.4 mph SE10.3 kmh SE 16.1 mph25.9 kmh 29.68 in1005.1 mb 0.15 in3.8 mm 0.00 in0.0 mm 0.48 in12.2 mm
07:00 AM 60.8°F16.0°C 59.4°F15.2°C 95% 6.8 mph SE10.9 kmh SE 25.1 mph40.4 kmh 29.71 in1006.1 mb 0.05 in1.3 mm 0.00 in0.0 mm 0.48 in12.2 mm
07:10 AM 60.8°F16.0°C 59.4°F15.2°C 95% 8.2 mph ESE13.2 kmh ESE 22.5 mph36.2 kmh 29.71 in1006.1 mb 0.05 in1.3 mm 0.00 in0.0 mm 0.53 in13.5 mm
07:20 AM 60.8°F16.0°C 59.4°F15.2°C 95% 5.3 mph ESE8.5 kmh ESE 12.2 mph19.6 kmh 29.71 in1006.1 mb 0.09 in2.3 mm 0.24 in6.1 mm 0.58 in14.7 mm
07:30 AM 60.8°F16.0°C 59.4°F15.2°C 95% 5.8 mph E9.3 kmh E 13.6 mph21.9 kmh 29.68 in1005.1 mb 0.09 in2.3 mm 0.00 in0.0 mm 0.58 in14.7 mm
07:40 AM 60.8°F16.0°C 59.4°F15.2°C 95% 3.8 mph SE6.1 kmh SE 11.8 mph19.0 kmh 29.68 in1005.1 mb 0.09 in2.3 mm 0.00 in0.0 mm 0.58 in14.7 mm
07:50 AM 60.8°F16.0°C 59.4°F15.2°C 95% 5.2 mph E8.4 kmh E 13.6 mph21.9 kmh 29.71 in1006.1 mb 0.09 in2.3 mm 0.00 in0.0 mm 0.58 in14.7 mm
08:00 AM 60.8°F16.0°C 59.4°F15.2°C 95% 4.5 mph E7.2 kmh E 16.8 mph27.0 kmh 29.68 in1005.1 mb 0.09 in2.3 mm 0.00 in0.0 mm 0.58 in14.7 mm
08:10 AM 61.0°F16.1°C 59.5°F15.3°C 95% 5.4 mph E8.7 kmh E 12.5 mph20.1 kmh 29.68 in1005.1 mb 0.09 in2.3 mm 0.00 in0.0 mm 0.62 in15.7 mm
08:20 AM 61.0°F16.1°C 59.5°F15.3°C 95% 3.5 mph ESE5.6 kmh ESE 13.6 mph21.9 kmh 29.71 in1006.1 mb 0.05 in1.3 mm 0.00 in0.0 mm 0.62 in15.7 mm
08:30 AM 61.2°F16.2°C 59.7°F15.4°C 95% 5.6 mph E9.0 kmh E 12.5 mph20.1 kmh 29.71 in1006.1 mb 0.05 in1.3 mm 0.00 in0.0 mm 0.62 in15.7 mm
08:40 AM 61.2°F16.2°C 59.7°F15.4°C 95% 6.4 mph E10.3 kmh E 10.0 mph16.1 kmh 29.71 in1006.1 mb 0.05 in1.3 mm 0.00 in0.0 mm 0.62 in15.7 mm
08:50 AM 61.2°F16.2°C 59.7°F15.4°C 95% 8.9 mph SE14.3 kmh SE 13.6 mph21.9 kmh 29.71 in1006.1 mb 0.05 in1.3 mm 0.00 in0.0 mm 0.62 in15.7 mm
09:00 AM 61.2°F16.2°C 59.7°F15.4°C 95% 7.8 mph ESE12.6 kmh ESE 11.5 mph18.5 kmh 29.71 in1006.1 mb 0.00 in0.0 mm 0.00 in0.0 mm 0.62 in15.7 mm
09:10 AM 61.3°F16.3°C 59.9°F15.5°C 95% 7.1 mph E11.4 kmh E 11.1 mph17.9 kmh 29.71 in1006.1 mb 0.00 in0.0 mm 0.00 in0.0 mm 0.62 in15.7 mm
09:20 AM 61.7°F16.5°C 60.3°F15.7°C 95% 12.0 mph E19.3 kmh E 19.3 mph31.1 kmh 29.71 in1006.1 mb 0.00 in0.0 mm 0.00 in0.0 mm 0.62 in15.7 mm
09:30 AM 61.7°F16.5°C 60.3°F15.7°C 95% 8.0 mph ESE12.9 kmh ESE 16.1 mph25.9 kmh 29.71 in1006.1 mb 0.00 in0.0 mm 0.00 in0.0 mm 0.62 in15.7 mm
09:40 AM 62.1°F16.7°C 60.6°F15.9°C 95% 7.6 mph SE12.2 kmh SE 13.6 mph21.9 kmh 29.71 in1006.1 mb 0.00 in0.0 mm 0.00 in0.0 mm 0.62 in15.7 mm
09:50 AM 62.4°F16.9°C 61.0°F16.1°C 95% 4.1 mph SE6.6 kmh SE 12.5 mph20.1 kmh 29.68 in1005.1 mb 0.00 in0.0 mm 0.00 in0.0 mm 0.62 in15.7 mm
10:00 AM 62.6°F17.0°C 61.1°F16.2°C 95% 5.4 mph ESE8.7 kmh ESE 9.7 mph15.6 kmh 29.68 in1005.1 mb 0.00 in0.0 mm 0.00 in0.0 mm 0.62 in15.7 mm
10:10 AM 63.3°F17.4°C 61.9°F16.6°C 95% 5.5 mph E8.9 kmh E 12.5 mph20.1 kmh 29.68 in1005.1 mb 0.00 in0.0 mm 0.00 in0.0 mm 0.62 in15.7 mm
10:20 AM 64.0°F17.8°C 62.9°F17.2°C 96% 5.3 mph ESE8.5 kmh ESE 9.7 mph15.6 kmh 29.68 in1005.1 mb 0.00 in0.0 mm 0.00 in0.0 mm 0.62 in15.7 mm
10:30 AM 64.2°F17.9°C 62.8°F17.1°C 95% 4.9 mph ESE7.9 kmh ESE 12.9 mph20.8 kmh 29.68 in1005.1 mb 0.00 in0.0 mm 0.00 in0.0 mm 0.62 in15.7 mm
10:40 AM 64.6°F18.1°C 62.8°F17.1°C 94% 4.7 mph ESE7.6 kmh ESE 9.7 mph15.6 kmh 29.68 in1005.1 mb 0.00 in0.0 mm 0.00 in0.0 mm 0.62 in15.7 mm
10:50 AM 64.4°F18.0°C 62.6°F17.0°C 94% 4.3 mph SE6.9 kmh SE 10.4 mph16.7 kmh 29.68 in1005.1 mb 0.00 in0.0 mm 0.00 in0.0 mm 0.62 in15.7 mm
11:00 AM 64.4°F18.0°C 62.6°F17.0°C 94% 3.2 mph SSE5.1 kmh SSE 7.9 mph12.7 kmh 29.68 in1005.1 mb 0.00 in0.0 mm 0.00 in0.0 mm 0.62 in15.7 mm
11:10 AM 64.6°F18.1°C 62.8°F17.1°C 94% 2.8 mph S4.5 kmh S 10.0 mph16.1 kmh 29.68 in1005.1 mb 0.00 in0.0 mm 0.00 in0.0 mm 0.62 in15.7 mm
11:20 AM 64.6°F18.1°C 62.8°F17.1°C 94% 2.4 mph S3.9 kmh S 7.5 mph12.1 kmh 29.68 in1005.1 mb 0.00 in0.0 mm 0.00 in0.0 mm 0.62 in15.7 mm
11:30 AM 64.6°F18.1°C 62.8°F17.1°C 94% 0.6 mph NNW1.0 kmh NNW 4.7 mph7.6 kmh 29.68 in1005.1 mb 0.00 in0.0 mm 0.00 in0.0 mm 0.62 in15.7 mm
11:40 AM 64.6°F18.1°C 62.8°F17.1°C 94% 0.2 mph SSE0.3 kmh SSE 1.4 mph2.3 kmh 29.68 in1005.1 mb 0.00 in0.0 mm 0.00 in0.0 mm 0.62 in15.7 mm
11:50 AM 64.9°F18.3°C 63.2°F17.3°C 94% 1.8 mph E2.9 kmh E 6.4 mph10.3 kmh 29.68 in1005.1 mb 0.00 in0.0 mm 0.00 in0.0 mm 0.62 in15.7 mm
12:00 PM 65.5°F18.6°C 63.7°F17.6°C 94% 0.6 mph ESE1.0 kmh ESE 3.2 mph5.1 kmh 29.68 in1005.1 mb 0.00 in0.0 mm 0.00 in0.0 mm 0.62 in15.7 mm
12:10 PM 65.7°F18.7°C 63.9°F17.7°C 94% Calm Calm -- 29.68 in1005.1 mb 0.00 in0.0 mm 0.00 in0.0 mm 0.62 in15.7 mm
12:20 PM 66.0°F18.9°C 64.2°F17.9°C 94% Calm Calm -- 29.68 in1005.1 mb 0.00 in0.0 mm 0.00 in0.0 mm 0.62 in15.7 mm
12:30 PM 66.0°F18.9°C 64.2°F17.9°C 94% Calm Calm -- 29.68 in1005.1 mb 0.00 in0.0 mm 0.00 in0.0 mm 0.62 in15.7 mm
12:40 PM 66.2°F19.0°C 64.1°F17.8°C 93% Calm Calm -- 29.68 in1005.1 mb 0.00 in0.0 mm 0.00 in0.0 mm 0.62 in15.7 mm
12:50 PM 66.9°F19.4°C 65.1°F18.4°C 94% Calm Calm -- 29.68 in1005.1 mb 0.00 in0.0 mm 0.00 in0.0 mm 0.62 in15.7 mm
01:00 PM 67.1°F19.5°C 65.3°F18.5°C 94% Calm Calm -- 29.68 in1005.1 mb 0.00 in0.0 mm 0.00 in0.0 mm 0.62 in15.7 mm
01:10 PM 67.5°F19.7°C 65.7°F18.7°C 94% 2.0 mph SE3.2 kmh SE 6.8 mph10.9 kmh 29.68 in1005.1 mb 0.00 in0.0 mm 0.00 in0.0 mm 0.62 in15.7 mm
01:20 PM 67.6°F19.8°C 65.5°F18.6°C 93% 6.0 mph ESE9.7 kmh ESE 8.9 mph14.3 kmh 29.68 in1005.1 mb 0.00 in0.0 mm 0.00 in0.0 mm 0.62 in15.7 mm
01:30 PM 67.8°F19.9°C 65.7°F18.7°C 93% 2.8 mph SE4.5 kmh SE 8.6 mph13.8 kmh 29.68 in1005.1 mb 0.00 in0.0 mm 0.00 in0.0 mm 0.62 in15.7 mm
01:40 PM 68.2°F20.1°C 66.1°F18.9°C 93% 1.7 mph S2.7 kmh S 6.4 mph10.3 kmh 29.68 in1005.1 mb 0.00 in0.0 mm 0.00 in0.0 mm 0.62 in15.7 mm
01:50 PM 68.2°F20.1°C 66.1°F18.9°C 93% 1.8 mph SSE2.9 kmh SSE 7.9 mph12.7 kmh 29.68 in1005.1 mb 0.00 in0.0 mm 0.00 in0.0 mm 0.62 in15.7 mm
02:00 PM 68.2°F20.1°C 66.1°F18.9°C 93% 3.8 mph S6.1 kmh S 11.5 mph18.5 kmh 29.68 in1005.1 mb 0.00 in0.0 mm 0.00 in0.0 mm 0.62 in15.7 mm
02:10 PM 68.2°F20.1°C 66.1°F18.9°C 93% 5.4 mph SSW8.7 kmh SSW 13.6 mph21.9 kmh 29.68 in1005.1 mb 0.00 in0.0 mm 0.00 in0.0 mm 0.62 in15.7 mm
02:20 PM 68.4°F20.2°C 65.9°F18.8°C 92% 6.0 mph S9.7 kmh S 12.5 mph20.1 kmh 29.68 in1005.1 mb 0.00 in0.0 mm 0.00 in0.0 mm 0.62 in15.7 mm
02:30 PM 68.2°F20.1°C 65.8°F18.8°C 92% 6.8 mph S10.9 kmh S 17.2 mph27.7 kmh 29.68 in1005.1 mb 0.00 in0.0 mm 0.00 in0.0 mm 0.62 in15.7 mm
02:40 PM 68.4°F20.2°C 65.0°F18.3°C 89% 9.4 mph SSW15.1 kmh SSW 20.8 mph33.5 kmh 29.68 in1005.1 mb 0.00 in0.0 mm 0.00 in0.0 mm 0.62 in15.7 mm
02:50 PM 68.5°F20.3°C 64.8°F18.2°C 88% 10.6 mph S17.1 kmh S 25.4 mph40.9 kmh 29.68 in1005.1 mb 0.00 in0.0 mm 0.00 in0.0 mm 0.62 in15.7 mm
03:00 PM 68.4°F20.2°C 64.3°F17.9°C 87% 7.3 mph S11.7 kmh S 17.5 mph28.2 kmh 29.68 in1005.1 mb 0.00 in0.0 mm 0.00 in0.0 mm 0.62 in15.7 mm
03:10 PM 68.0°F20.0°C 63.3°F17.4°C 85% 5.9 mph SSE9.5 kmh SSE 16.1 mph25.9 kmh 29.68 in1005.1 mb 0.00 in0.0 mm 0.00 in0.0 mm 0.62 in15.7 mm
03:20 PM 67.8°F19.9°C 63.1°F17.3°C 85% 3.6 mph SSE5.8 kmh SSE 12.2 mph19.6 kmh 29.68 in1005.1 mb 0.00 in0.0 mm 0.00 in0.0 mm 0.62 in15.7 mm
03:30 PM 67.6°F19.8°C 62.3°F16.8°C 83% 6.2 mph SE10.0 kmh SE 12.5 mph20.1 kmh 29.71 in1006.1 mb 0.00 in0.0 mm 0.00 in0.0 mm 0.62 in15.7 mm
03:40 PM 67.5°F19.7°C 61.4°F16.3°C 81% 5.4 mph S8.7 kmh S 12.5 mph20.1 kmh 29.71 in1006.1 mb 0.00 in0.0 mm 0.00 in0.0 mm 0.62 in15.7 mm
03:50 PM 67.3°F19.6°C 61.2°F16.2°C 81% 5.2 mph S8.4 kmh S 14.0 mph22.5 kmh 29.71 in1006.1 mb 0.00 in0.0 mm 0.00 in0.0 mm 0.62 in15.7 mm
04:00 PM 67.5°F19.7°C 61.8°F16.6°C 82% 4.3 mph S6.9 kmh S 9.3 mph15.0 kmh 29.71 in1006.1 mb 0.00 in0.0 mm 0.00 in0.0 mm 0.62 in15.7 mm
04:10 PM 67.5°F19.7°C 61.8°F16.6°C 82% 4.3 mph S6.9 kmh S 10.0 mph16.1 kmh 29.71 in1006.1 mb 0.00 in0.0 mm 0.00 in0.0 mm 0.62 in15.7 mm
04:20 PM 67.5°F19.7°C 62.1°F16.7°C 83% 5.1 mph SW8.2 kmh SW 14.0 mph22.5 kmh 29.71 in1006.1 mb 0.00 in0.0 mm 0.00 in0.0 mm 0.62 in15.7 mm
04:30 PM 66.9°F19.4°C 61.9°F16.6°C 84% 5.5 mph S8.9 kmh S 15.7 mph25.3 kmh 29.71 in1006.1 mb 0.00 in0.0 mm 0.00 in0.0 mm 0.62 in15.7 mm
04:40 PM 66.6°F19.2°C 61.9°F16.6°C 85% 4.5 mph S7.2 kmh S 10.4 mph16.7 kmh 29.71 in1006.1 mb 0.00 in0.0 mm 0.00 in0.0 mm 0.62 in15.7 mm
04:50 PM 66.2°F19.0°C 61.9°F16.6°C 86% 5.3 mph S8.5 kmh S 10.4 mph16.7 kmh 29.71 in1006.1 mb 0.00 in0.0 mm 0.00 in0.0 mm 0.62 in15.7 mm
05:00 PM 66.2°F19.0°C 62.2°F16.8°C 87% 5.5 mph S8.9 kmh S 16.5 mph26.6 kmh 29.71 in1006.1 mb 0.00 in0.0 mm 0.00 in0.0 mm 0.62 in15.7 mm
05:10 PM 66.2°F19.0°C 62.5°F16.9°C 88% 6.9 mph S11.1 kmh S 13.6 mph21.9 kmh 29.71 in1006.1 mb 0.00 in0.0 mm 0.00 in0.0 mm 0.62 in15.7 mm
05:20 PM 66.6°F19.2°C 62.9°F17.2°C 88% 6.1 mph S9.8 kmh S 12.9 mph20.8 kmh 29.74 in1007.1 mb 0.00 in0.0 mm 0.00 in0.0 mm 0.62 in15.7 mm
05:30 PM 66.9°F19.4°C 63.6°F17.6°C 89% 5.7 mph S9.2 kmh S 12.5 mph20.1 kmh 29.71 in1006.1 mb 0.00 in0.0 mm 0.00 in0.0 mm 0.62 in15.7 mm
05:40 PM 66.4°F19.1°C 62.4°F16.9°C 87% 7.5 mph S12.1 kmh S 15.4 mph24.8 kmh 29.71 in1006.1 mb 0.00 in0.0 mm 0.00 in0.0 mm 0.62 in15.7 mm
05:50 PM 66.0°F18.9°C 62.0°F16.7°C 87% 7.6 mph S12.2 kmh S 19.0 mph30.6 kmh 29.68 in1005.1 mb 0.00 in0.0 mm 0.00 in0.0 mm 0.62 in15.7 mm
06:00 PM 66.0°F18.9°C 62.7°F17.1°C 89% 8.0 mph S12.9 kmh S 16.8 mph27.0 kmh 29.71 in1006.1 mb 0.00 in0.0 mm 0.00 in0.0 mm 0.62 in15.7 mm
06:10 PM 65.7°F18.7°C 62.3°F16.8°C 89% 6.8 mph S10.9 kmh S 17.5 mph28.2 kmh 29.71 in1006.1 mb 0.00 in0.0 mm 0.00 in0.0 mm 0.62 in15.7 mm
06:20 PM 65.5°F18.6°C 62.2°F16.8°C 89% 5.5 mph S8.9 kmh S 15.7 mph25.3 kmh 29.71 in1006.1 mb 0.00 in0.0 mm 0.00 in0.0 mm 0.62 in15.7 mm
06:30 PM 65.7°F18.7°C 62.3°F16.8°C 89% 7.2 mph S11.6 kmh S 13.6 mph21.9 kmh 29.68 in1005.1 mb 0.00 in0.0 mm 0.00 in0.0 mm 0.62 in15.7 mm
06:40 PM 65.3°F18.5°C 61.7°F16.5°C 88% 5.1 mph S8.2 kmh S 12.5 mph20.1 kmh 29.68 in1005.1 mb 0.06 in1.5 mm 0.36 in9.1 mm 0.68 in17.3 mm
06:50 PM 64.9°F18.3°C 61.3°F16.3°C 88% 7.0 mph S11.3 kmh S 16.8 mph27.0 kmh 29.71 in1006.1 mb 0.06 in1.5 mm 0.00 in0.0 mm 0.68 in17.3 mm
07:00 PM 64.9°F18.3°C 61.3°F16.3°C 88% 7.1 mph S11.4 kmh S 12.5 mph20.1 kmh 29.68 in1005.1 mb 0.06 in1.5 mm 0.00 in0.0 mm 0.68 in17.3 mm
07:10 PM 64.9°F18.3°C 61.0°F16.1°C 87% 8.0 mph SSW12.9 kmh SSW 17.2 mph27.7 kmh 29.68 in1005.1 mb 0.06 in1.5 mm 0.00 in0.0 mm 0.68 in17.3 mm
07:20 PM 64.9°F18.3°C 61.0°F16.1°C 87% 7.0 mph S11.3 kmh S 17.2 mph27.7 kmh 29.68 in1005.1 mb 0.06 in1.5 mm 0.00 in0.0 mm 0.68 in17.3 mm
07:30 PM 64.9°F18.3°C 60.6°F15.9°C 86% 6.3 mph S10.1 kmh S 14.7 mph23.7 kmh 29.71 in1006.1 mb 0.06 in1.5 mm 0.00 in0.0 mm 0.68 in17.3 mm
07:40 PM 64.9°F18.3°C 60.6°F15.9°C 86% 7.7 mph S12.4 kmh S 19.0 mph30.6 kmh 29.71 in1006.1 mb 0.00 in0.0 mm 0.00 in0.0 mm 0.68 in17.3 mm
07:50 PM 64.9°F18.3°C 60.3°F15.7°C 85% 6.8 mph SSW10.9 kmh SSW 19.7 mph31.7 kmh 29.71 in1006.1 mb 0.00 in0.0 mm 0.00 in0.0 mm 0.68 in17.3 mm
08:00 PM 64.8°F18.2°C 60.1°F15.6°C 85% 6.0 mph SW9.7 kmh SW 15.7 mph25.3 kmh 29.71 in1006.1 mb 0.00 in0.0 mm 0.00 in0.0 mm 0.68 in17.3 mm
08:10 PM 64.9°F18.3°C 60.3°F15.7°C 85% 8.4 mph SW13.5 kmh SW 20.0 mph32.2 kmh 29.71 in1006.1 mb 0.00 in0.0 mm 0.00 in0.0 mm 0.68 in17.3 mm
08:20 PM 64.9°F18.3°C 60.3°F15.7°C 85% 7.0 mph S11.3 kmh S 14.0 mph22.5 kmh 29.74 in1007.1 mb 0.00 in0.0 mm 0.00 in0.0 mm 0.68 in17.3 mm
08:30 PM 65.1°F18.4°C 59.8°F15.4°C 83% 7.3 mph S11.7 kmh S 16.5 mph26.6 kmh 29.74 in1007.1 mb 0.00 in0.0 mm 0.00 in0.0 mm 0.68 in17.3 mm
08:40 PM 64.9°F18.3°C 59.7°F15.4°C 83% 7.7 mph SSW12.4 kmh SSW 17.5 mph28.2 kmh 29.74 in1007.1 mb 0.00 in0.0 mm 0.00 in0.0 mm 0.68 in17.3 mm
08:50 PM 64.9°F18.3°C 59.7°F15.4°C 83% 6.7 mph SSW10.8 kmh SSW 12.9 mph20.8 kmh 29.74 in1007.1 mb 0.00 in0.0 mm 0.00 in0.0 mm 0.68 in17.3 mm
09:00 PM 64.8°F18.2°C 59.5°F15.3°C 83% 6.9 mph S11.1 kmh S 16.1 mph25.9 kmh 29.74 in1007.1 mb 0.00 in0.0 mm 0.00 in0.0 mm 0.68 in17.3 mm
09:10 PM 64.6°F18.1°C 59.3°F15.2°C 83% 5.6 mph SSW9.0 kmh SSW 12.2 mph19.6 kmh 29.74 in1007.1 mb 0.00 in0.0 mm 0.00 in0.0 mm 0.68 in17.3 mm
09:20 PM 64.4°F18.0°C 59.5°F15.3°C 84% 7.2 mph SSW11.6 kmh SSW 16.1 mph25.9 kmh 29.74 in1007.1 mb 0.00 in0.0 mm 0.00 in0.0 mm 0.68 in17.3 mm
09:30 PM 64.4°F18.0°C 59.5°F15.3°C 84% 6.0 mph S9.7 kmh S 19.7 mph31.7 kmh 29.74 in1007.1 mb 0.00 in0.0 mm 0.00 in0.0 mm 0.68 in17.3 mm
09:40 PM 64.4°F18.0°C 59.5°F15.3°C 84% 6.5 mph SSW10.5 kmh SSW 23.3 mph37.5 kmh 29.74 in1007.1 mb 0.00 in0.0 mm 0.00 in0.0 mm 0.68 in17.3 mm
09:50 PM 64.2°F17.9°C 59.3°F15.2°C 84% 6.1 mph S9.8 kmh S 14.3 mph23.0 kmh 29.74 in1007.1 mb 0.00 in0.0 mm 0.00 in0.0 mm 0.68 in17.3 mm
10:00 PM 64.4°F18.0°C 59.1°F15.1°C 83% 5.5 mph S8.9 kmh S 12.2 mph19.6 kmh 29.71 in1006.1 mb 0.00 in0.0 mm 0.00 in0.0 mm 0.68 in17.3 mm
10:10 PM 64.8°F18.2°C 59.1°F15.1°C 82% 6.6 mph S10.6 kmh S 16.1 mph25.9 kmh 29.71 in1006.1 mb 0.00 in0.0 mm 0.00 in0.0 mm 0.68 in17.3 mm
10:20 PM 64.9°F18.3°C 59.3°F15.2°C 82% 8.3 mph SSW13.4 kmh SSW 21.1 mph34.0 kmh 29.74 in1007.1 mb 0.00 in0.0 mm 0.00 in0.0 mm 0.68 in17.3 mm
10:30 PM 65.1°F18.4°C 58.8°F14.9°C 80% 7.4 mph S11.9 kmh S 21.1 mph34.0 kmh 29.74 in1007.1 mb 0.00 in0.0 mm 0.00 in0.0 mm 0.68 in17.3 mm
10:40 PM 64.9°F18.3°C 58.3°F14.6°C 79% 11.2 mph SSW18.0 kmh SSW 19.7 mph31.7 kmh 29.74 in1007.1 mb 0.00 in0.0 mm 0.00 in0.0 mm 0.68 in17.3 mm
10:50 PM 64.4°F18.0°C 58.4°F14.7°C 81% 8.8 mph S14.2 kmh S 23.6 mph38.0 kmh 29.71 in1006.1 mb 0.00 in0.0 mm 0.00 in0.0 mm 0.68 in17.3 mm
11:00 PM 63.9°F17.7°C 58.3°F14.6°C 82% 7.3 mph SW11.7 kmh SW 15.4 mph24.8 kmh 29.71 in1006.1 mb 0.00 in0.0 mm 0.00 in0.0 mm 0.40 in10.2 mm
11:10 PM 63.9°F17.7°C 58.9°F14.9°C 84% 6.0 mph S9.7 kmh S 15.0 mph24.1 kmh 29.71 in1006.1 mb 0.00 in0.0 mm 0.00 in0.0 mm 0.40 in10.2 mm
11:20 PM 64.0°F17.8°C 59.4°F15.2°C 85% 7.2 mph SSW11.6 kmh SSW 20.0 mph32.2 kmh 29.71 in1006.1 mb 0.00 in0.0 mm 0.00 in0.0 mm 0.40 in10.2 mm
11:30 PM 64.0°F17.8°C 59.4°F15.2°C 85% 6.2 mph SSW10.0 kmh SSW 17.5 mph28.2 kmh 29.71 in1006.1 mb 0.00 in0.0 mm 0.00 in0.0 mm 0.40 in10.2 mm
11:40 PM 64.0°F17.8°C 59.8°F15.4°C 86% 8.4 mph SSW13.5 kmh SSW 20.4 mph32.8 kmh 29.71 in1006.1 mb 0.00 in0.0 mm 0.00 in0.0 mm 0.40 in10.2 mm
11:50 PM 63.9°F17.7°C 59.9°F15.5°C 87% 9.3 mph S15.0 kmh S 24.3 mph39.1 kmh 29.71 in1006.1 mb 0.00 in0.0 mm 0.00 in0.0 mm 0.40 in10.2 mm